Terminal Aerodrome Forecast
Issued by NWS Cleveland, OH

Home | Current Version | Previous Version | Graphics & Text | Print | Product List | Glossary On
Versions: 1 2 3 4 5 6 7 8 9 10 11 12 13 14 15 16
945
FTUS41 KCLE 171728
TAFERI
TAF
KERI 171728Z 1718/1818 24011KT P6SM BKN020
      TEMPO 1719/1721 5SM -SN
     FM180500 22013KT P6SM SCT200
     FM181200 22013G21KT P6SM SCT050=

USA.gov is the U.S. government's official web portal to all federal, state and local government web resources and services.